sensor_id;sensor_type;location;lat;lon;timestamp;pressure;altitude;pressure_sealevel;temperature;humidity
36234;BME280;43467;50.890;5.982;2022-07-29T00:00:41;100230.25;;;21.00;45.18
36234;BME280;43467;50.890;5.982;2022-07-29T00:03:10;100234.66;;;21.01;45.62
36234;BME280;43467;50.890;5.982;2022-07-29T00:05:35;100233.22;;;20.97;45.93
36234;BME280;43467;50.890;5.982;2022-07-29T00:08:00;100226.13;;;20.96;45.79
36234;BME280;43467;50.890;5.982;2022-07-29T00:10:26;100217.88;;;20.78;48.22
36234;BME280;43467;50.890;5.982;2022-07-29T00:12:51;100210.78;;;20.77;47.46
36234;BME280;43467;50.890;5.982;2022-07-29T00:15:17;100211.91;;;20.74;49.87
36234;BME280;43467;50.890;5.982;2022-07-29T00:17:42;100217.28;;;20.74;50.07
36234;BME280;43467;50.890;5.982;2022-07-29T00:20:08;100211.84;;;20.65;49.35
36234;BME280;43467;50.890;5.982;2022-07-29T00:22:37;100216.31;;;20.55;50.25
36234;BME280;43467;50.890;5.982;2022-07-29T00:25:03;100216.47;;;20.53;50.12
36234;BME280;43467;50.890;5.982;2022-07-29T00:27:28;100212.75;;;20.45;50.63
36234;BME280;43467;50.890;5.982;2022-07-29T00:29:53;100229.53;;;20.37;51.11
36234;BME280;43467;50.890;5.982;2022-07-29T00:32:19;100212.72;;;20.24;51.46
36234;BME280;43467;50.890;5.982;2022-07-29T00:34:44;100230.06;;;20.31;51.10
36234;BME280;43467;50.890;5.982;2022-07-29T00:37:28;100232.25;;;20.26;51.51
36234;BME280;43467;50.890;5.982;2022-07-29T00:39:53;100235.59;;;20.18;50.91
36234;BME280;43467;50.890;5.982;2022-07-29T00:42:19;100247.75;;;20.13;51.07
36234;BME280;43467;50.890;5.982;2022-07-29T00:44:45;100241.56;;;20.01;50.90
36234;BME280;43467;50.890;5.982;2022-07-29T00:47:11;100248.81;;;19.89;50.84
36234;BME280;43467;50.890;5.982;2022-07-29T00:49:38;100233.69;;;19.88;50.24
36234;BME280;43467;50.890;5.982;2022-07-29T00:52:05;100234.53;;;19.89;50.86
36234;BME280;43467;50.890;5.982;2022-07-29T00:54:31;100230.22;;;19.98;50.26
36234;BME280;43467;50.890;5.982;2022-07-29T00:56:58;100220.19;;;20.00;49.95
36234;BME280;43467;50.890;5.982;2022-07-29T00:59:25;100205.44;;;19.94;50.43
36234;BME280;43467;50.890;5.982;2022-07-29T01:01:52;100209.56;;;19.98;50.95
36234;BME280;43467;50.890;5.982;2022-07-29T01:04:17;100218.94;;;20.04;50.91
36234;BME280;43467;50.890;5.982;2022-07-29T01:06:43;100209.19;;;20.03;50.27
36234;BME280;43467;50.890;5.982;2022-07-29T01:09:09;100219.41;;;20.09;51.07
36234;BME280;43467;50.890;5.982;2022-07-29T01:11:36;100213.78;;;20.12;51.54
36234;BME280;43467;50.890;5.982;2022-07-29T01:14:03;100214.34;;;20.15;51.33
36234;BME280;43467;50.890;5.982;2022-07-29T01:16:41;100205.16;;;20.18;51.84
36234;BME280;43467;50.890;5.982;2022-07-29T01:19:16;100201.38;;;20.20;51.92
36234;BME280;43467;50.890;5.982;2022-07-29T01:21:51;100199.56;;;20.21;51.66
36234;BME280;43467;50.890;5.982;2022-07-29T01:29:30;100191.94;;;20.05;51.29
36234;BME280;43467;50.890;5.982;2022-07-29T01:32:14;100197.06;;;20.08;51.53
36234;BME280;43467;50.890;5.982;2022-07-29T01:34:53;100197.06;;;20.08;51.76
36234;BME280;43467;50.890;5.982;2022-07-29T01:37:35;100193.91;;;20.03;51.67
36234;BME280;43467;50.890;5.982;2022-07-29T01:40:05;100194.38;;;20.08;51.72
36234;BME280;43467;50.890;5.982;2022-07-29T01:42:43;100194.38;;;20.08;52.46
36234;BME280;43467;50.890;5.982;2022-07-29T01:53:43;100191.13;;;19.93;52.77
36234;BME280;43467;50.890;5.982;2022-07-29T01:56:12;100194.69;;;19.94;52.22
36234;BME280;43467;50.890;5.982;2022-07-29T01:58:40;100196.84;;;19.79;52.68
36234;BME280;43467;50.890;5.982;2022-07-29T02:01:08;100190.03;;;19.75;52.63
36234;BME280;43467;50.890;5.982;2022-07-29T02:03:36;100184.19;;;19.70;53.05
36234;BME280;43467;50.890;5.982;2022-07-29T02:06:04;100190.69;;;19.68;52.99
36234;BME280;43467;50.890;5.982;2022-07-29T02:08:32;100186.28;;;19.67;53.00
36234;BME280;43467;50.890;5.982;2022-07-29T02:10:59;100183.00;;;19.63;52.76
36234;BME280;43467;50.890;5.982;2022-07-29T02:13:27;100175.72;;;19.54;53.01
36234;BME280;43467;50.890;5.982;2022-07-29T02:15:54;100184.03;;;19.51;52.99
36234;BME280;43467;50.890;5.982;2022-07-29T02:18:22;100183.28;;;19.49;53.57
36234;BME280;43467;50.890;5.982;2022-07-29T02:20:52;100177.31;;;19.45;53.42
36234;BME280;43467;50.890;5.982;2022-07-29T02:23:20;100173.94;;;19.43;53.09
36234;BME280;43467;50.890;5.982;2022-07-29T02:25:52;100181.84;;;19.45;53.76
36234;BME280;43467;50.890;5.982;2022-07-29T02:28:19;100185.13;;;19.48;53.58
36234;BME280;43467;50.890;5.982;2022-07-29T02:30:45;100187.09;;;19.46;52.88
36234;BME280;43467;50.890;5.982;2022-07-29T02:33:14;100196.84;;;19.36;53.74
36234;BME280;43467;50.890;5.982;2022-07-29T02:35:41;100200.66;;;19.34;53.67
36234;BME280;43467;50.890;5.982;2022-07-29T02:38:12;100200.28;;;19.38;54.02
36234;BME280;43467;50.890;5.982;2022-07-29T02:40:58;100208.09;;;19.30;53.49
36234;BME280;43467;50.890;5.982;2022-07-29T02:43:25;100216.91;;;19.21;53.72
36234;BME280;43467;50.890;5.982;2022-07-29T02:45:53;100216.66;;;19.13;53.80
36234;BME280;43467;50.890;5.982;2022-07-29T02:48:22;100211.31;;;19.13;54.15
36234;BME280;43467;50.890;5.982;2022-07-29T02:50:58;100205.81;;;19.15;54.30
36234;BME280;43467;50.890;5.982;2022-07-29T02:53:26;100203.00;;;19.16;53.67
36234;BME280;43467;50.890;5.982;2022-07-29T02:55:55;100208.97;;;19.20;54.32
36234;BME280;43467;50.890;5.982;2022-07-29T02:58:33;100209.22;;;19.17;53.85
36234;BME280;43467;50.890;5.982;2022-07-29T03:01:15;100215.19;;;19.20;54.33
36234;BME280;43467;50.890;5.982;2022-07-29T03:03:44;100208.38;;;19.16;54.43
36234;BME280;43467;50.890;5.982;2022-07-29T03:06:12;100200.91;;;19.20;53.89
36234;BME280;43467;50.890;5.982;2022-07-29T03:08:39;100214.31;;;19.20;54.15
36234;BME280;43467;50.890;5.982;2022-07-29T03:11:05;100213.25;;;19.22;54.06
36234;BME280;43467;50.890;5.982;2022-07-29T03:13:32;100208.13;;;19.19;54.62
36234;BME280;43467;50.890;5.982;2022-07-29T03:15:58;100204.44;;;19.20;55.94
36234;BME280;43467;50.890;5.982;2022-07-29T03:18:24;100201.66;;;19.22;57.09
36234;BME280;43467;50.890;5.982;2022-07-29T03:20:51;100206.69;;;19.15;57.03
36234;BME280;43467;50.890;5.982;2022-07-29T03:23:21;100205.44;;;19.19;57.42
36234;BME280;43467;50.890;5.982;2022-07-29T03:25:48;100211.78;;;19.18;57.76
36234;BME280;43467;50.890;5.982;2022-07-29T03:28:14;100212.88;;;19.27;56.73
36234;BME280;43467;50.890;5.982;2022-07-29T03:30:39;100211.66;;;19.31;58.41
36234;BME280;43467;50.890;5.982;2022-07-29T03:33:05;100203.00;;;19.27;58.29
36234;BME280;43467;50.890;5.982;2022-07-29T03:35:30;100203.59;;;19.31;57.33
36234;BME280;43467;50.890;5.982;2022-07-29T03:37:57;100196.63;;;19.28;57.33
36234;BME280;43467;50.890;5.982;2022-07-29T03:40:26;100198.59;;;19.26;57.75
36234;BME280;43467;50.890;5.982;2022-07-29T03:42:53;100198.63;;;19.15;57.27
36234;BME280;43467;50.890;5.982;2022-07-29T03:45:21;100203.47;;;19.21;57.21
36234;BME280;43467;50.890;5.982;2022-07-29T03:47:48;100205.94;;;19.13;57.53
36234;BME280;43467;50.890;5.982;2022-07-29T03:50:15;100209.88;;;18.98;58.17
36234;BME280;43467;50.890;5.982;2022-07-29T03:52:42;100208.16;;;18.97;58.79
36234;BME280;43467;50.890;5.982;2022-07-29T03:55:08;100213.19;;;18.90;59.10
36234;BME280;43467;50.890;5.982;2022-07-29T03:57:34;100209.50;;;18.91;58.75
36234;BME280;43467;50.890;5.982;2022-07-29T04:00:01;100218.31;;;18.82;59.59
36234;BME280;43467;50.890;5.982;2022-07-29T04:02:27;100209.66;;;18.79;59.85
36234;BME280;43467;50.890;5.982;2022-07-29T04:04:52;100219.13;;;18.72;60.70
36234;BME280;43467;50.890;5.982;2022-07-29T04:07:18;100225.72;;;18.68;60.66
36234;BME280;43467;50.890;5.982;2022-07-29T04:09:44;100218.28;;;18.60;61.43
36234;BME280;43467;50.890;5.982;2022-07-29T04:12:10;100222.44;;;18.64;61.63
36234;BME280;43467;50.890;5.982;2022-07-29T04:14:35;100227.69;;;18.66;61.32
36234;BME280;43467;50.890;5.982;2022-07-29T04:17:02;100229.88;;;18.72;60.95
36234;BME280;43467;50.890;5.982;2022-07-29T04:19:28;100240.09;;;18.67;61.71
36234;BME280;43467;50.890;5.982;2022-07-29T04:21:54;100234.25;;;18.73;61.31
36234;BME280;43467;50.890;5.982;2022-07-29T04:24:19;100229.63;;;18.75;60.56
36234;BME280;43467;50.890;5.982;2022-07-29T04:26:46;100234.53;;;18.70;61.83
36234;BME280;43467;50.890;5.982;2022-07-29T04:29:11;100224.75;;;18.69;61.89
36234;BME280;43467;50.890;5.982;2022-07-29T04:31:39;100234.63;;;18.68;61.25
36234;BME280;43467;50.890;5.982;2022-07-29T04:34:04;100234.97;;;18.75;60.94
36234;BME280;43467;50.890;5.982;2022-07-29T04:36:30;100237.66;;;18.75;60.44
36234;BME280;43467;50.890;5.982;2022-07-29T04:38:55;100226.94;;;18.75;61.73
36234;BME280;43467;50.890;5.982;2022-07-29T04:41:21;100223.44;;;18.74;61.55
36234;BME280;43467;50.890;5.982;2022-07-29T04:43:46;100227.06;;;18.73;61.25
36234;BME280;43467;50.890;5.982;2022-07-29T04:46:11;100226.72;;;18.78;61.40
36234;BME280;43467;50.890;5.982;2022-07-29T04:48:37;100223.66;;;18.82;60.88
36234;BME280;43467;50.890;5.982;2022-07-29T04:51:02;100218.06;;;18.85;61.14
36234;BME280;43467;50.890;5.982;2022-07-29T04:53:28;100210.59;;;18.89;61.68
36234;BME280;43467;50.890;5.982;2022-07-29T04:55:53;100208.66;;;18.91;61.78
36234;BME280;43467;50.890;5.982;2022-07-29T04:58:18;100198.31;;;18.86;61.17
36234;BME280;43467;50.890;5.982;2022-07-29T05:00:44;100204.88;;;18.93;61.61
36234;BME280;43467;50.890;5.982;2022-07-29T05:03:09;100193.66;;;18.88;61.50
36234;BME280;43467;50.890;5.982;2022-07-29T05:05:35;100209.97;;;18.96;61.19
36234;BME280;43467;50.890;5.982;2022-07-29T05:08:00;100210.22;;;19.04;60.66
36234;BME280;43467;50.890;5.982;2022-07-29T05:10:25;100201.91;;;19.08;60.92
36234;BME280;43467;50.890;5.982;2022-07-29T05:12:51;100201.31;;;19.15;60.59
36234;BME280;43467;50.890;5.982;2022-07-29T05:15:16;100204.72;;;19.17;60.68
36234;BME280;43467;50.890;5.982;2022-07-29T05:17:43;100214.22;;;19.21;60.80
36234;BME280;43467;50.890;5.982;2022-07-29T05:20:09;100215.41;;;19.28;60.27
36234;BME280;43467;50.890;5.982;2022-07-29T05:22:34;100208.81;;;19.32;59.58
36234;BME280;43467;50.890;5.982;2022-07-29T05:25:00;100220.16;;;19.36;59.87
36234;BME280;43467;50.890;5.982;2022-07-29T05:27:25;100218.47;;;19.35;59.20
36234;BME280;43467;50.890;5.982;2022-07-29T05:29:51;100213.59;;;19.29;59.63
36234;BME280;43467;50.890;5.982;2022-07-29T05:32:16;100204.81;;;19.16;59.32
36234;BME280;43467;50.890;5.982;2022-07-29T05:34:41;100203.84;;;19.17;59.08
36234;BME280;43467;50.890;5.982;2022-07-29T05:37:07;100213.88;;;19.15;58.86
36234;BME280;43467;50.890;5.982;2022-07-29T05:39:32;100214.25;;;19.10;58.93
36234;BME280;43467;50.890;5.982;2022-07-29T05:41:58;100203.78;;;19.07;58.52
36234;BME280;43467;50.890;5.982;2022-07-29T05:44:23;100218.50;;;19.13;58.49
36234;BME280;43467;50.890;5.982;2022-07-29T05:46:48;100215.81;;;19.13;58.38
36234;BME280;43467;50.890;5.982;2022-07-29T05:49:14;100234.72;;;19.22;57.82
36234;BME280;43467;50.890;5.982;2022-07-29T05:51:39;100230.81;;;19.26;57.51
36234;BME280;43467;50.890;5.982;2022-07-29T05:54:05;100230.88;;;19.36;57.11
36234;BME280;43467;50.890;5.982;2022-07-29T05:56:31;100237.53;;;19.43;57.21
36234;BME280;43467;50.890;5.982;2022-07-29T05:58:56;100243.09;;;19.51;56.92
36234;BME280;43467;50.890;5.982;2022-07-29T06:01:21;100248.97;;;19.56;56.41
36234;BME280;43467;50.890;5.982;2022-07-29T06:03:47;100245.03;;;19.60;56.98
36234;BME280;43467;50.890;5.982;2022-07-29T06:06:12;100242.44;;;19.70;56.42
36234;BME280;43467;50.890;5.982;2022-07-29T06:08:38;100245.91;;;19.81;55.83
36234;BME280;43467;50.890;5.982;2022-07-29T06:11:04;100241.75;;;19.88;56.06
36234;BME280;43467;50.890;5.982;2022-07-29T06:13:30;100241.03;;;19.86;55.45
36234;BME280;43467;50.890;5.982;2022-07-29T06:15:56;100236.31;;;20.00;55.25
36234;BME280;43467;50.890;5.982;2022-07-29T06:18:21;100234.31;;;20.13;54.69
36234;BME280;43467;50.890;5.982;2022-07-29T06:20:50;100238.38;;;20.28;54.64
36234;BME280;43467;50.890;5.982;2022-07-29T06:23:15;100238.28;;;20.29;54.20
36234;BME280;43467;50.890;5.982;2022-07-29T06:25:40;100243.00;;;20.26;54.25
36234;BME280;43467;50.890;5.982;2022-07-29T06:28:06;100247.56;;;20.25;53.91
36234;BME280;43467;50.890;5.982;2022-07-29T06:30:31;100251.34;;;20.23;53.87
36234;BME280;43467;50.890;5.982;2022-07-29T06:32:57;100251.22;;;20.24;54.24
36234;BME280;43467;50.890;5.982;2022-07-29T06:35:22;100252.59;;;20.19;53.85
36234;BME280;43467;50.890;5.982;2022-07-29T06:37:48;100243.16;;;20.24;53.71
36234;BME280;43467;50.890;5.982;2022-07-29T06:40:13;100245.84;;;20.24;53.75
36234;BME280;43467;50.890;5.982;2022-07-29T06:42:57;100256.81;;;20.32;53.83
36234;BME280;43467;50.890;5.982;2022-07-29T06:45:23;100254.72;;;20.36;53.48
36234;BME280;43467;50.890;5.982;2022-07-29T06:47:49;100249.34;;;20.36;53.78
36234;BME280;43467;50.890;5.982;2022-07-29T06:50:15;100253.16;;;20.33;54.34
36234;BME280;43467;50.890;5.982;2022-07-29T06:52:40;100251.06;;;20.26;54.19
36234;BME280;43467;50.890;5.982;2022-07-29T06:55:07;100255.34;;;20.28;53.90
36234;BME280;43467;50.890;5.982;2022-07-29T06:57:33;100263.50;;;20.38;53.77
36234;BME280;43467;50.890;5.982;2022-07-29T06:59:59;100257.50;;;20.46;53.90
36234;BME280;43467;50.890;5.982;2022-07-29T07:02:24;100263.91;;;20.33;54.04
36234;BME280;43467;50.890;5.982;2022-07-29T07:04:49;100268.22;;;20.25;54.39
36234;BME280;43467;50.890;5.982;2022-07-29T07:07:15;100272.38;;;20.18;54.45
36234;BME280;43467;50.890;5.982;2022-07-29T07:09:40;100275.06;;;20.18;55.27
36234;BME280;43467;50.890;5.982;2022-07-29T07:12:06;100286.75;;;20.28;55.16
36234;BME280;43467;50.890;5.982;2022-07-29T07:14:32;100286.72;;;20.39;54.96
36234;BME280;43467;50.890;5.982;2022-07-29T07:16:57;100294.31;;;20.55;54.11
36234;BME280;43467;50.890;5.982;2022-07-29T07:19:25;100290.56;;;20.67;54.43
36234;BME280;43467;50.890;5.982;2022-07-29T07:21:50;100283.38;;;20.67;54.64
36234;BME280;43467;50.890;5.982;2022-07-29T07:24:16;100289.28;;;20.82;55.21
36234;BME280;43467;50.890;5.982;2022-07-29T07:26:41;100282.94;;;20.93;54.04
36234;BME280;43467;50.890;5.982;2022-07-29T07:29:06;100291.13;;;20.91;53.63
36234;BME280;43467;50.890;5.982;2022-07-29T07:31:32;100288.78;;;20.98;54.14
36234;BME280;43467;50.890;5.982;2022-07-29T07:33:57;100289.06;;;21.04;54.82
36234;BME280;43467;50.890;5.982;2022-07-29T07:36:23;100296.69;;;21.20;54.07
36234;BME280;43467;50.890;5.982;2022-07-29T07:38:49;100294.47;;;21.35;53.45
36234;BME280;43467;50.890;5.982;2022-07-29T07:41:14;100299.47;;;21.39;53.29
36234;BME280;43467;50.890;5.982;2022-07-29T07:43:39;100301.00;;;21.42;52.63
36234;BME280;43467;50.890;5.982;2022-07-29T07:46:05;100301.06;;;21.51;52.81
36234;BME280;43467;50.890;5.982;2022-07-29T07:48:30;100291.53;;;21.47;52.21
36234;BME280;43467;50.890;5.982;2022-07-29T07:50:56;100289.00;;;21.55;51.98
36234;BME280;43467;50.890;5.982;2022-07-29T07:53:21;100294.41;;;21.55;52.46
36234;BME280;43467;50.890;5.982;2022-07-29T07:55:47;100290.38;;;21.40;51.99
36234;BME280;43467;50.890;5.982;2022-07-29T07:58:12;100282.34;;;21.19;51.91
36234;BME280;43467;50.890;5.982;2022-07-29T08:00:38;100292.47;;;21.27;52.01
36234;BME280;43467;50.890;5.982;2022-07-29T08:03:03;100280.69;;;21.18;51.81
36234;BME280;43467;50.890;5.982;2022-07-29T08:05:29;100284.03;;;21.11;52.38
36234;BME280;43467;50.890;5.982;2022-07-29T08:07:54;100303.09;;;20.98;52.52
36234;BME280;43467;50.890;5.982;2022-07-29T08:10:20;100300.53;;;20.97;52.39
36234;BME280;43467;50.890;5.982;2022-07-29T08:13:05;100297.31;;;21.03;52.57
36234;BME280;43467;50.890;5.982;2022-07-29T08:15:31;100301.78;;;20.93;52.95
36234;BME280;43467;50.890;5.982;2022-07-29T08:17:56;100308.19;;;21.01;52.51
36234;BME280;43467;50.890;5.982;2022-07-29T08:20:22;100305.56;;;21.11;52.24
36234;BME280;43467;50.890;5.982;2022-07-29T08:22:48;100306.59;;;21.19;52.14
36234;BME280;43467;50.890;5.982;2022-07-29T08:25:14;100307.38;;;21.41;51.83
36234;BME280;43467;50.890;5.982;2022-07-29T08:27:39;100305.66;;;21.30;51.98
36234;BME280;43467;50.890;5.982;2022-07-29T08:30:05;100311.22;;;21.38;51.20
36234;BME280;43467;50.890;5.982;2022-07-29T08:32:31;100314.34;;;21.43;51.51
36234;BME280;43467;50.890;5.982;2022-07-29T08:34:56;100319.59;;;21.45;51.89
36234;BME280;43467;50.890;5.982;2022-07-29T08:37:22;100316.19;;;21.52;52.00
36234;BME280;43467;50.890;5.982;2022-07-29T08:39:48;100319.91;;;21.51;51.84
36234;BME280;43467;50.890;5.982;2022-07-29T08:42:13;100317.59;;;21.37;51.36
36234;BME280;43467;50.890;5.982;2022-07-29T08:44:39;100322.97;;;21.37;52.15
36234;BME280;43467;50.890;5.982;2022-07-29T08:47:04;100316.56;;;21.28;51.95
36234;BME280;43467;50.890;5.982;2022-07-29T08:49:32;100325.78;;;21.26;52.84
36234;BME280;43467;50.890;5.982;2022-07-29T08:51:58;100318.91;;;21.12;53.06
36234;BME280;43467;50.890;5.982;2022-07-29T08:54:24;100320.63;;;21.13;53.77
36234;BME280;43467;50.890;5.982;2022-07-29T08:56:50;100321.47;;;21.14;53.70
36234;BME280;43467;50.890;5.982;2022-07-29T08:59:19;100317.63;;;21.16;54.51
36234;BME280;43467;50.890;5.982;2022-07-29T09:01:46;100320.75;;;21.12;53.38
36234;BME280;43467;50.890;5.982;2022-07-29T09:04:13;100318.16;;;21.10;54.53
36234;BME280;43467;50.890;5.982;2022-07-29T09:06:44;100325.50;;;21.08;54.82
36234;BME280;43467;50.890;5.982;2022-07-29T09:09:10;100328.00;;;21.21;54.68
36234;BME280;43467;50.890;5.982;2022-07-29T09:11:36;100320.50;;;21.24;54.79
36234;BME280;43467;50.890;5.982;2022-07-29T09:14:02;100324.06;;;21.25;54.84
36234;BME280;43467;50.890;5.982;2022-07-29T09:17:01;100328.00;;;21.21;55.66
36234;BME280;43467;50.890;5.982;2022-07-29T09:19:30;100320.38;;;21.26;56.03
36234;BME280;43467;50.890;5.982;2022-07-29T09:21:57;100329.50;;;21.35;55.60
36234;BME280;43467;50.890;5.982;2022-07-29T09:24:24;100323.94;;;21.36;55.90
36234;BME280;43467;50.890;5.982;2022-07-29T09:26:50;100328.69;;;21.44;55.70
36234;BME280;43467;50.890;5.982;2022-07-29T09:29:18;100334.38;;;21.50;55.36
36234;BME280;43467;50.890;5.982;2022-07-29T09:31:51;100335.50;;;21.57;55.02
36234;BME280;43467;50.890;5.982;2022-07-29T09:34:22;100333.56;;;21.69;55.07
36234;BME280;43467;50.890;5.982;2022-07-29T09:36:49;100332.56;;;21.70;54.28
36234;BME280;43467;50.890;5.982;2022-07-29T09:39:27;100333.13;;;21.73;54.14
36234;BME280;43467;50.890;5.982;2022-07-29T09:41:54;100345.34;;;21.68;53.80
36234;BME280;43467;50.890;5.982;2022-07-29T09:44:22;100345.50;;;21.76;54.09
36234;BME280;43467;50.890;5.982;2022-07-29T09:47:01;100352.97;;;21.72;54.04
36234;BME280;43467;50.890;5.982;2022-07-29T09:49:56;100350.56;;;21.60;54.82
36234;BME280;43467;50.890;5.982;2022-07-29T09:52:20;100354.94;;;21.61;55.13
36234;BME280;43467;50.890;5.982;2022-07-29T09:54:46;100343.88;;;21.54;55.28
36234;BME280;43467;50.890;5.982;2022-07-29T09:57:26;100349.38;;;21.53;55.62
36234;BME280;43467;50.890;5.982;2022-07-29T09:59:59;100354.66;;;21.54;56.41
36234;BME280;43467;50.890;5.982;2022-07-29T10:02:29;100361.03;;;21.53;57.14
36234;BME280;43467;50.890;5.982;2022-07-29T10:04:56;100351.63;;;21.38;57.96
36234;BME280;43467;50.890;5.982;2022-07-29T10:07:22;100364.09;;;21.39;58.55
36234;BME280;43467;50.890;5.982;2022-07-29T10:09:56;100355.06;;;21.50;58.62
36234;BME280;43467;50.890;5.982;2022-07-29T10:12:22;100361.59;;;21.47;57.95
36234;BME280;43467;50.890;5.982;2022-07-29T10:14:48;100355.97;;;21.60;58.47
36234;BME280;43467;50.890;5.982;2022-07-29T10:17:15;100355.69;;;21.72;57.57
36234;BME280;43467;50.890;5.982;2022-07-29T10:19:41;100353.75;;;21.84;58.16
36234;BME280;43467;50.890;5.982;2022-07-29T10:22:09;100353.50;;;22.06;57.46
36234;BME280;43467;50.890;5.982;2022-07-29T10:24:35;100352.38;;;22.18;57.04
36234;BME280;43467;50.890;5.982;2022-07-29T10:27:07;100346.44;;;22.15;56.98
36234;BME280;43467;50.890;5.982;2022-07-29T10:29:33;100342.19;;;22.12;57.20
36234;BME280;43467;50.890;5.982;2022-07-29T10:32:10;100344.84;;;21.93;57.06
36234;BME280;43467;50.890;5.982;2022-07-29T10:35:01;100342.59;;;22.08;57.46
36234;BME280;43467;50.890;5.982;2022-07-29T10:40:28;100346.06;;;21.89;56.60
36234;BME280;43467;50.890;5.982;2022-07-29T10:43:26;100345.66;;;21.84;57.48
36234;BME280;43467;50.890;5.982;2022-07-29T10:45:56;100348.03;;;21.77;56.40
36234;BME280;43467;50.890;5.982;2022-07-29T10:48:22;100349.63;;;21.80;56.27
36234;BME280;43467;50.890;5.982;2022-07-29T10:51:00;100340.13;;;21.76;56.33
36234;BME280;43467;50.890;5.982;2022-07-29T10:53:52;100342.22;;;21.72;57.43
36234;BME280;43467;50.890;5.982;2022-07-29T10:56:29;100352.56;;;21.67;56.71
36234;BME280;43467;50.890;5.982;2022-07-29T11:01:48;100348.03;;;21.77;56.16
36234;BME280;43467;50.890;5.982;2022-07-29T11:04:15;100350.94;;;21.95;55.52
36234;BME280;43467;50.890;5.982;2022-07-29T11:09:29;100346.53;;;21.94;55.61
36234;BME280;43467;50.890;5.982;2022-07-29T11:11:58;100348.69;;;22.10;55.09
36234;BME280;43467;50.890;5.982;2022-07-29T11:17:17;100351.28;;;22.21;54.13
36234;BME280;43467;50.890;5.982;2022-07-29T11:19:42;100354.66;;;22.23;53.90
36234;BME280;43467;50.890;5.982;2022-07-29T11:22:09;100353.25;;;22.19;53.80
36234;BME280;43467;50.890;5.982;2022-07-29T11:24:35;100351.53;;;22.18;52.71
36234;BME280;43467;50.890;5.982;2022-07-29T11:29:41;100351.28;;;22.40;53.36
36234;BME280;43467;50.890;5.982;2022-07-29T11:32:14;100350.41;;;22.49;52.81
36234;BME280;43467;50.890;5.982;2022-07-29T11:34:41;100349.28;;;22.61;52.25
36234;BME280;43467;50.890;5.982;2022-07-29T11:39:37;100359.63;;;22.66;49.13
36234;BME280;43467;50.890;5.982;2022-07-29T11:45:14;100347.13;;;22.75;49.82
36234;BME280;43467;50.890;5.982;2022-07-29T11:47:52;100357.22;;;22.73;48.48
36234;BME280;43467;50.890;5.982;2022-07-29T11:50:34;100342.88;;;22.72;48.48
36234;BME280;43467;50.890;5.982;2022-07-29T11:53:02;100354.41;;;22.74;49.74
36234;BME280;43467;50.890;5.982;2022-07-29T11:55:28;100361.91;;;22.70;50.18
36234;BME280;43467;50.890;5.982;2022-07-29T11:57:56;100353.50;;;22.83;49.90
36234;BME280;43467;50.890;5.982;2022-07-29T12:00:30;100351.94;;;22.90;49.26
36234;BME280;43467;50.890;5.982;2022-07-29T12:02:56;100350.34;;;22.97;47.92
36234;BME280;43467;50.890;5.982;2022-07-29T12:05:48;100356.13;;;23.12;46.22
36234;BME280;43467;50.890;5.982;2022-07-29T12:08:14;100344.44;;;23.21;47.34
36234;BME280;43467;50.890;5.982;2022-07-29T12:10:42;100345.72;;;23.27;46.82
36234;BME280;43467;50.890;5.982;2022-07-29T12:13:08;100348.25;;;23.28;45.46
36234;BME280;43467;50.890;5.982;2022-07-29T12:15:34;100347.78;;;23.42;45.25
36234;BME280;43467;50.890;5.982;2022-07-29T12:18:13;100337.75;;;23.62;45.73
36234;BME280;43467;50.890;5.982;2022-07-29T12:20:39;100340.78;;;23.77;44.73
36234;BME280;43467;50.890;5.982;2022-07-29T12:23:06;100346.00;;;23.88;43.62
36234;BME280;43467;50.890;5.982;2022-07-29T12:25:34;100345.91;;;23.97;43.80
36234;BME280;43467;50.890;5.982;2022-07-29T12:28:03;100343.47;;;24.04;44.37
36234;BME280;43467;50.890;5.982;2022-07-29T12:30:40;100341.25;;;24.17;43.08
36234;BME280;43467;50.890;5.982;2022-07-29T12:33:13;100337.22;;;24.39;42.51
36234;BME280;43467;50.890;5.982;2022-07-29T12:35:39;100339.47;;;24.43;43.09
36234;BME280;43467;50.890;5.982;2022-07-29T12:38:05;100341.78;;;24.38;42.82
36234;BME280;43467;50.890;5.982;2022-07-29T12:40:30;100344.66;;;24.37;44.32
36234;BME280;43467;50.890;5.982;2022-07-29T12:45:35;100330.41;;;24.52;43.87
36234;BME280;43467;50.890;5.982;2022-07-29T12:48:01;100327.78;;;24.61;43.44
36234;BME280;43467;50.890;5.982;2022-07-29T12:50:27;100345.88;;;24.42;42.59
36234;BME280;43467;50.890;5.982;2022-07-29T12:52:52;100334.97;;;24.34;41.00
36234;BME280;43467;50.890;5.982;2022-07-29T12:55:43;100337.38;;;24.37;41.55
36234;BME280;43467;50.890;5.982;2022-07-29T12:58:09;100335.31;;;24.49;41.96
36234;BME280;43467;50.890;5.982;2022-07-29T13:00:35;100325.22;;;24.59;43.10
36234;BME280;43467;50.890;5.982;2022-07-29T13:03:00;100330.97;;;24.82;43.13
36234;BME280;43467;50.890;5.982;2022-07-29T13:05:43;100325.38;;;24.83;41.96
36234;BME280;43467;50.890;5.982;2022-07-29T13:08:17;100315.16;;;24.69;41.83
36234;BME280;43467;50.890;5.982;2022-07-29T13:10:45;100322.56;;;24.67;42.17
36234;BME280;43467;50.890;5.982;2022-07-29T13:13:13;100330.75;;;24.75;41.83
36234;BME280;43467;50.890;5.982;2022-07-29T13:15:42;100328.66;;;24.87;41.13
36234;BME280;43467;50.890;5.982;2022-07-29T13:18:33;100324.56;;;25.09;41.10
36234;BME280;43467;50.890;5.982;2022-07-29T13:21:15;100332.88;;;25.15;40.66
36234;BME280;43467;50.890;5.982;2022-07-29T13:23:40;100328.00;;;25.19;40.36
36234;BME280;43467;50.890;5.982;2022-07-29T13:26:10;100326.22;;;25.35;40.63
36234;BME280;43467;50.890;5.982;2022-07-29T13:28:41;100325.94;;;25.47;41.46
36234;BME280;43467;50.890;5.982;2022-07-29T13:31:06;100325.31;;;25.53;41.44